sensor_id;sensor_type;location;lat;lon;timestamp;noise_LAeq;noise_LA_min;noise_LA_max;noise_LA01;noise_LA95
76217;Laerm;65010;50.190;18.930;2024-02-26T00:00:29;41.65;35.10;43.79;;
76217;Laerm;65010;50.190;18.930;2024-02-26T00:03:38;41.65;35.17;43.94;;
76217;Laerm;65010;50.190;18.930;2024-02-26T00:06:45;41.72;35.28;43.90;;
76217;Laerm;65010;50.190;18.930;2024-02-26T00:09:54;41.72;34.96;43.94;;
76217;Laerm;65010;50.190;18.930;2024-02-26T00:12:59;41.72;35.32;44.00;;
76217;Laerm;65010;50.190;18.930;2024-02-26T00:16:08;41.81;35.60;43.94;;
76217;Laerm;65010;50.190;18.930;2024-02-26T00:19:14;41.64;34.88;44.17;;
76217;Laerm;65010;50.190;18.930;2024-02-26T00:22:21;41.70;35.40;44.13;;
76217;Laerm;65010;50.190;18.930;2024-02-26T00:25:27;41.66;35.21;43.79;;
76217;Laerm;65010;50.190;18.930;2024-02-26T00:28:34;41.71;34.96;44.44;;
76217;Laerm;65010;50.190;18.930;2024-02-26T00:31:42;41.66;35.21;43.65;;
76217;Laerm;65010;50.190;18.930;2024-02-26T00:34:48;41.69;35.56;43.69;;
76217;Laerm;65010;50.190;18.930;2024-02-26T00:37:54;41.69;35.03;43.67;;
76217;Laerm;65010;50.190;18.930;2024-02-26T00:41:02;41.69;35.48;43.83;;
76217;Laerm;65010;50.190;18.930;2024-02-26T00:44:08;41.67;35.13;44.44;;
76217;Laerm;65010;50.190;18.930;2024-02-26T00:47:17;41.59;35.10;43.71;;
76217;Laerm;65010;50.190;18.930;2024-02-26T00:50:23;41.67;37.92;43.96;;
76217;Laerm;65010;50.190;18.930;2024-02-26T00:53:29;41.73;39.98;44.09;;
76217;Laerm;65010;50.190;18.930;2024-02-26T00:56:35;41.75;35.62;43.85;;
76217;Laerm;65010;50.190;18.930;2024-02-26T00:59:41;41.77;39.21;43.47;;
76217;Laerm;65010;50.190;18.930;2024-02-26T01:02:50;41.73;39.52;43.75;;
76217;Laerm;65010;50.190;18.930;2024-02-26T01:05:57;41.64;39.78;43.59;;
76217;Laerm;65010;50.190;18.930;2024-02-26T01:09:03;41.69;39.39;43.71;;
76217;Laerm;65010;50.190;18.930;2024-02-26T01:12:10;41.78;39.55;43.94;;
76217;Laerm;65010;50.190;18.930;2024-02-26T01:15:15;41.83;34.75;43.76;;
76217;Laerm;65010;50.190;18.930;2024-02-26T01:18:28;41.93;35.87;43.90;;
76217;Laerm;65010;50.190;18.930;2024-02-26T01:21:34;41.88;40.02;43.89;;
76217;Laerm;65010;50.190;18.930;2024-02-26T01:24:40;41.86;39.95;44.17;;
76217;Laerm;65010;50.190;18.930;2024-02-26T01:27:46;41.78;39.90;43.91;;
76217;Laerm;65010;50.190;18.930;2024-02-26T01:30:53;41.71;39.66;43.47;;
76217;Laerm;65010;50.190;18.930;2024-02-26T01:34:01;41.79;39.79;43.84;;
76217;Laerm;65010;50.190;18.930;2024-02-26T01:37:08;41.74;39.40;43.83;;
76217;Laerm;65010;50.190;18.930;2024-02-26T01:40:14;41.83;40.12;43.80;;
76217;Laerm;65010;50.190;18.930;2024-02-26T01:43:23;41.73;39.63;43.99;;
76217;Laerm;65010;50.190;18.930;2024-02-26T01:46:33;41.83;40.00;44.04;;
76217;Laerm;65010;50.190;18.930;2024-02-26T01:49:43;41.84;39.69;44.03;;
76217;Laerm;65010;50.190;18.930;2024-02-26T01:52:52;41.83;39.49;44.02;;
76217;Laerm;65010;50.190;18.930;2024-02-26T01:56:00;41.86;39.96;43.86;;
76217;Laerm;65010;50.190;18.930;2024-02-26T01:59:08;41.79;39.84;43.84;;
76217;Laerm;65010;50.190;18.930;2024-02-26T02:02:16;41.73;39.89;43.84;;
76217;Laerm;65010;50.190;18.930;2024-02-26T02:05:26;41.70;35.47;44.18;;
76217;Laerm;65010;50.190;18.930;2024-02-26T02:08:33;41.70;37.41;44.02;;
76217;Laerm;65010;50.190;18.930;2024-02-26T02:11:40;41.64;38.01;43.90;;
76217;Laerm;65010;50.190;18.930;2024-02-26T02:14:48;41.66;37.69;43.92;;
76217;Laerm;65010;50.190;18.930;2024-02-26T02:17:54;41.72;38.79;43.92;;
76217;Laerm;65010;50.190;18.930;2024-02-26T02:21:04;41.74;39.62;43.71;;
76217;Laerm;65010;50.190;18.930;2024-02-26T02:24:09;41.79;38.22;43.86;;
76217;Laerm;65010;50.190;18.930;2024-02-26T02:27:16;41.73;39.83;44.08;;
76217;Laerm;65010;50.190;18.930;2024-02-26T02:30:28;41.74;39.68;43.61;;
76217;Laerm;65010;50.190;18.930;2024-02-26T02:33:36;41.76;39.85;43.67;;
76217;Laerm;65010;50.190;18.930;2024-02-26T02:36:53;41.76;38.81;44.02;;
76217;Laerm;65010;50.190;18.930;2024-02-26T02:40:00;41.72;39.69;43.72;;
76217;Laerm;65010;50.190;18.930;2024-02-26T02:43:06;41.93;39.78;44.01;;
76217;Laerm;65010;50.190;18.930;2024-02-26T02:46:13;42.07;40.19;44.71;;
76217;Laerm;65010;50.190;18.930;2024-02-26T02:49:19;42.07;39.81;44.25;;
76217;Laerm;65010;50.190;18.930;2024-02-26T02:52:30;41.95;39.83;44.09;;
76217;Laerm;65010;50.190;18.930;2024-02-26T02:55:35;42.01;40.02;44.33;;
76217;Laerm;65010;50.190;18.930;2024-02-26T02:58:42;42.04;39.92;44.85;;
76217;Laerm;65010;50.190;18.930;2024-02-26T03:01:48;42.09;40.11;44.24;;
76217;Laerm;65010;50.190;18.930;2024-02-26T03:04:56;42.00;39.94;44.23;;
76217;Laerm;65010;50.190;18.930;2024-02-26T03:08:05;42.04;40.19;44.38;;
76217;Laerm;65010;50.190;18.930;2024-02-26T03:11:13;42.03;39.88;44.33;;
76217;Laerm;65010;50.190;18.930;2024-02-26T03:14:19;41.98;40.13;43.87;;
76217;Laerm;65010;50.190;18.930;2024-02-26T03:17:26;41.97;39.71;43.96;;
76217;Laerm;65010;50.190;18.930;2024-02-26T03:20:32;42.00;39.88;44.28;;
76217;Laerm;65010;50.190;18.930;2024-02-26T03:23:41;42.03;39.70;44.11;;
76217;Laerm;65010;50.190;18.930;2024-02-26T03:26:47;42.04;40.16;44.20;;
76217;Laerm;65010;50.190;18.930;2024-02-26T03:29:56;42.07;40.15;44.05;;
76217;Laerm;65010;50.190;18.930;2024-02-26T03:33:02;42.07;40.11;44.08;;
76217;Laerm;65010;50.190;18.930;2024-02-26T03:36:11;42.07;39.81;44.45;;
76217;Laerm;65010;50.190;18.930;2024-02-26T03:39:19;42.00;40.10;44.72;;
76217;Laerm;65010;50.190;18.930;2024-02-26T03:42:26;41.98;40.00;44.16;;
76217;Laerm;65010;50.190;18.930;2024-02-26T03:45:32;42.00;40.17;44.22;;
76217;Laerm;65010;50.190;18.930;2024-02-26T03:48:39;42.04;39.97;44.03;;
76217;Laerm;65010;50.190;18.930;2024-02-26T03:51:45;42.11;40.08;43.97;;
76217;Laerm;65010;50.190;18.930;2024-02-26T03:54:54;42.03;40.01;44.37;;
76217;Laerm;65010;50.190;18.930;2024-02-26T03:58:00;42.04;40.01;44.05;;
76217;Laerm;65010;50.190;18.930;2024-02-26T04:01:08;42.09;39.93;43.89;;
76217;Laerm;65010;50.190;18.930;2024-02-26T04:04:14;42.08;40.25;44.23;;
76217;Laerm;65010;50.190;18.930;2024-02-26T04:07:20;42.12;40.15;44.05;;
76217;Laerm;65010;50.190;18.930;2024-02-26T04:10:29;42.10;40.07;44.35;;
76217;Laerm;65010;50.190;18.930;2024-02-26T04:13:35;42.09;39.98;44.25;;
76217;Laerm;65010;50.190;18.930;2024-02-26T04:16:41;42.12;40.26;44.17;;
76217;Laerm;65010;50.190;18.930;2024-02-26T04:19:48;42.12;40.12;44.08;;
76217;Laerm;65010;50.190;18.930;2024-02-26T04:22:54;42.07;40.03;44.13;;
76217;Laerm;65010;50.190;18.930;2024-02-26T04:26:05;42.09;39.97;44.56;;
76217;Laerm;65010;50.190;18.930;2024-02-26T04:29:14;42.10;40.07;44.34;;
76217;Laerm;65010;50.190;18.930;2024-02-26T04:32:21;42.12;40.12;44.22;;
76217;Laerm;65010;50.190;18.930;2024-02-26T04:35:29;42.05;39.91;43.99;;
76217;Laerm;65010;50.190;18.930;2024-02-26T04:38:35;42.14;40.31;44.20;;
76217;Laerm;65010;50.190;18.930;2024-02-26T04:41:44;42.08;39.84;44.27;;
76217;Laerm;65010;50.190;18.930;2024-02-26T04:44:50;42.10;39.97;44.17;;
76217;Laerm;65010;50.190;18.930;2024-02-26T04:47:56;42.01;40.03;44.35;;
76217;Laerm;65010;50.190;18.930;2024-02-26T04:51:04;42.06;40.09;44.16;;
76217;Laerm;65010;50.190;18.930;2024-02-26T04:54:10;42.04;39.90;44.92;;
76217;Laerm;65010;50.190;18.930;2024-02-26T04:57:20;42.15;40.33;44.40;;
76217;Laerm;65010;50.190;18.930;2024-02-26T05:00:26;42.12;40.02;44.44;;
76217;Laerm;65010;50.190;18.930;2024-02-26T05:03:33;42.05;39.70;44.12;;
76217;Laerm;65010;50.190;18.930;2024-02-26T05:06:39;42.07;39.98;44.47;;
76217;Laerm;65010;50.190;18.930;2024-02-26T05:09:46;41.82;35.19;44.54;;
76217;Laerm;65010;50.190;18.930;2024-02-26T05:12:55;41.69;36.70;43.81;;
76217;Laerm;65010;50.190;18.930;2024-02-26T05:16:02;41.65;36.29;43.92;;
76217;Laerm;65010;50.190;18.930;2024-02-26T05:19:08;41.66;36.73;43.89;;
76217;Laerm;65010;50.190;18.930;2024-02-26T05:22:15;41.73;36.86;43.96;;
76217;Laerm;65010;50.190;18.930;2024-02-26T05:25:21;41.81;36.86;44.01;;
76217;Laerm;65010;50.190;18.930;2024-02-26T05:28:30;41.79;36.56;43.88;;
76217;Laerm;65010;50.190;18.930;2024-02-26T05:31:36;41.99;37.14;44.33;;
76217;Laerm;65010;50.190;18.930;2024-02-26T05:34:42;42.01;37.86;44.53;;
76217;Laerm;65010;50.190;18.930;2024-02-26T05:37:48;42.04;36.32;44.49;;
76217;Laerm;65010;50.190;18.930;2024-02-26T05:40:54;42.22;36.76;45.01;;
76217;Laerm;65010;50.190;18.930;2024-02-26T05:44:04;42.24;38.05;44.47;;
76217;Laerm;65010;50.190;18.930;2024-02-26T05:47:13;42.09;36.65;44.45;;
76217;Laerm;65010;50.190;18.930;2024-02-26T05:50:20;42.17;36.71;44.49;;
76217;Laerm;65010;50.190;18.930;2024-02-26T05:53:26;42.16;36.89;44.60;;
76217;Laerm;65010;50.190;18.930;2024-02-26T05:56:32;42.07;39.80;44.32;;
76217;Laerm;65010;50.190;18.930;2024-02-26T05:59:41;42.05;38.61;44.42;;
76217;Laerm;65010;50.190;18.930;2024-02-26T06:02:47;42.07;39.14;44.42;;
76217;Laerm;65010;50.190;18.930;2024-02-26T06:05:54;42.11;40.00;44.55;;
76217;Laerm;65010;50.190;18.930;2024-02-26T06:08:59;42.19;38.45;44.71;;
76217;Laerm;65010;50.190;18.930;2024-02-26T06:12:07;42.04;38.94;44.41;;
76217;Laerm;65010;50.190;18.930;2024-02-26T06:15:15;42.00;38.75;44.50;;
76217;Laerm;65010;50.190;18.930;2024-02-26T06:18:22;42.14;36.23;44.43;;
76217;Laerm;65010;50.190;18.930;2024-02-26T06:21:28;42.01;35.64;44.55;;
76217;Laerm;65010;50.190;18.930;2024-02-26T06:24:35;42.06;37.00;44.18;;
76217;Laerm;65010;50.190;18.930;2024-02-26T06:27:40;42.00;38.93;44.75;;
76217;Laerm;65010;50.190;18.930;2024-02-26T06:30:49;42.10;39.47;44.62;;
76217;Laerm;65010;50.190;18.930;2024-02-26T06:33:55;42.17;37.52;44.70;;
76217;Laerm;65010;50.190;18.930;2024-02-26T06:37:03;42.01;40.06;44.36;;
76217;Laerm;65010;50.190;18.930;2024-02-26T06:40:09;41.91;39.34;44.86;;
76217;Laerm;65010;50.190;18.930;2024-02-26T06:43:16;41.81;39.58;44.07;;
76217;Laerm;65010;50.190;18.930;2024-02-26T06:46:24;41.90;37.28;44.23;;
76217;Laerm;65010;50.190;18.930;2024-02-26T06:49:34;41.89;36.88;44.11;;
76217;Laerm;65010;50.190;18.930;2024-02-26T06:52:40;41.85;35.70;43.77;;
76217;Laerm;65010;50.190;18.930;2024-02-26T06:55:47;41.79;35.66;43.99;;
76217;Laerm;65010;50.190;18.930;2024-02-26T06:58:53;41.79;38.15;43.73;;
76217;Laerm;65010;50.190;18.930;2024-02-26T07:02:02;41.83;37.88;44.17;;
76217;Laerm;65010;50.190;18.930;2024-02-26T07:05:09;41.61;34.78;43.89;;
76217;Laerm;65010;50.190;18.930;2024-02-26T07:08:19;41.57;35.17;43.95;;
76217;Laerm;65010;50.190;18.930;2024-02-26T07:11:24;41.69;35.18;43.81;;
76217;Laerm;65010;50.190;18.930;2024-02-26T07:14:31;41.98;39.81;44.55;;
76217;Laerm;65010;50.190;18.930;2024-02-26T07:17:39;41.90;39.91;44.21;;
76217;Laerm;65010;50.190;18.930;2024-02-26T07:20:51;41.86;39.68;43.93;;
76217;Laerm;65010;50.190;18.930;2024-02-26T07:23:57;41.85;39.79;44.86;;
76217;Laerm;65010;50.190;18.930;2024-02-26T07:27:04;41.96;39.74;44.28;;
76217;Laerm;65010;50.190;18.930;2024-02-26T07:30:11;41.80;39.62;44.29;;
76217;Laerm;65010;50.190;18.930;2024-02-26T07:33:21;41.69;38.95;43.87;;
76217;Laerm;65010;50.190;18.930;2024-02-26T07:36:27;41.78;39.78;43.87;;
76217;Laerm;65010;50.190;18.930;2024-02-26T07:39:34;41.71;39.81;44.44;;
76217;Laerm;65010;50.190;18.930;2024-02-26T07:42:39;41.63;35.44;43.70;;
76217;Laerm;65010;50.190;18.930;2024-02-26T07:45:46;41.54;39.30;43.68;;
76217;Laerm;65010;50.190;18.930;2024-02-26T07:48:54;41.57;39.53;43.60;;
76217;Laerm;65010;50.190;18.930;2024-02-26T07:52:01;41.45;39.44;44.36;;
76217;Laerm;65010;50.190;18.930;2024-02-26T07:55:08;41.38;39.52;43.42;;
76217;Laerm;65010;50.190;18.930;2024-02-26T07:58:14;41.28;39.31;43.21;;
76217;Laerm;65010;50.190;18.930;2024-02-26T08:01:20;41.12;36.31;42.90;;
76217;Laerm;65010;50.190;18.930;2024-02-26T08:04:29;40.97;36.83;42.89;;
76217;Laerm;65010;50.190;18.930;2024-02-26T08:07:35;41.30;36.67;43.42;;
76217;Laerm;65010;50.190;18.930;2024-02-26T08:10:43;41.30;39.46;43.21;;
76217;Laerm;65010;50.190;18.930;2024-02-26T08:13:49;40.90;35.55;43.03;;
76217;Laerm;65010;50.190;18.930;2024-02-26T08:16:55;40.84;35.18;42.74;;
76217;Laerm;65010;50.190;18.930;2024-02-26T08:20:05;39.88;34.60;42.97;;
76217;Laerm;65010;50.190;18.930;2024-02-26T08:23:12;40.40;35.14;42.82;;
76217;Laerm;65010;50.190;18.930;2024-02-26T08:26:18;41.30;35.91;43.02;;
76217;Laerm;65010;50.190;18.930;2024-02-26T08:29:26;41.18;39.05;42.99;;
76217;Laerm;65010;50.190;18.930;2024-02-26T08:32:31;40.35;34.87;43.01;;
76217;Laerm;65010;50.190;18.930;2024-02-26T08:35:41;39.68;34.78;42.61;;
76217;Laerm;65010;50.190;18.930;2024-02-26T08:38:47;39.80;34.60;42.75;;
76217;Laerm;65010;50.190;18.930;2024-02-26T08:41:53;40.37;34.89;43.38;;
76217;Laerm;65010;50.190;18.930;2024-02-26T08:45:00;40.36;34.78;43.35;;
76217;Laerm;65010;50.190;18.930;2024-02-26T08:48:07;40.04;34.65;42.95;;
76217;Laerm;65010;50.190;18.930;2024-02-26T08:51:16;40.14;34.70;43.05;;
76217;Laerm;65010;50.190;18.930;2024-02-26T08:54:22;40.08;34.47;42.49;;
76217;Laerm;65010;50.190;18.930;2024-02-26T08:57:28;40.21;34.98;42.66;;
76217;Laerm;65010;50.190;18.930;2024-02-26T09:00:36;40.13;34.71;42.82;;
76217;Laerm;65010;50.190;18.930;2024-02-26T09:03:42;40.58;35.09;42.45;;
76217;Laerm;65010;50.190;18.930;2024-02-26T09:06:51;40.17;34.49;42.19;;
76217;Laerm;65010;50.190;18.930;2024-02-26T09:09:56;40.13;34.66;42.40;;
76217;Laerm;65010;50.190;18.930;2024-02-26T09:13:04;40.21;34.54;42.59;;
76217;Laerm;65010;50.190;18.930;2024-02-26T09:16:09;40.13;34.75;42.46;;
76217;Laerm;65010;50.190;18.930;2024-02-26T09:19:18;40.08;34.87;42.10;;
76217;Laerm;65010;50.190;18.930;2024-02-26T09:22:26;40.07;35.07;42.41;;
76217;Laerm;65010;50.190;18.930;2024-02-26T09:25:32;40.14;34.44;42.42;;
76217;Laerm;65010;50.190;18.930;2024-02-26T09:28:39;40.18;34.33;42.43;;
76217;Laerm;65010;50.190;18.930;2024-02-26T09:31:45;40.27;34.81;42.51;;
76217;Laerm;65010;50.190;18.930;2024-02-26T09:34:52;40.19;34.85;42.47;;
76217;Laerm;65010;50.190;18.930;2024-02-26T09:38:01;40.19;34.72;42.67;;
76217;Laerm;65010;50.190;18.930;2024-02-26T09:41:15;40.32;34.92;42.81;;
76217;Laerm;65010;50.190;18.930;2024-02-26T09:44:25;40.25;34.81;42.72;;
76217;Laerm;65010;50.190;18.930;2024-02-26T09:47:36;40.37;34.71;42.78;;
76217;Laerm;65010;50.190;18.930;2024-02-26T09:50:44;40.39;34.36;42.87;;
76217;Laerm;65010;50.190;18.930;2024-02-26T09:53:53;40.35;34.72;42.66;;
76217;Laerm;65010;50.190;18.930;2024-02-26T09:57:03;40.32;34.78;42.67;;
76217;Laerm;65010;50.190;18.930;2024-02-26T10:00:17;40.38;34.87;42.79;;
76217;Laerm;65010;50.190;18.930;2024-02-26T10:03:35;40.21;34.67;42.43;;
76217;Laerm;65010;50.190;18.930;2024-02-26T10:06:44;40.31;34.39;42.45;;
76217;Laerm;65010;50.190;18.930;2024-02-26T10:09:55;40.29;34.84;42.61;;
76217;Laerm;65010;50.190;18.930;2024-02-26T10:13:03;40.44;34.73;43.03;;
76217;Laerm;65010;50.190;18.930;2024-02-26T10:16:14;40.48;35.21;42.72;;
76217;Laerm;65010;50.190;18.930;2024-02-26T10:19:26;40.33;34.75;42.54;;
76217;Laerm;65010;50.190;18.930;2024-02-26T10:22:33;40.37;34.89;42.81;;
76217;Laerm;65010;50.190;18.930;2024-02-26T10:25:52;40.32;34.72;42.58;;
76217;Laerm;65010;50.190;18.930;2024-02-26T10:29:03;40.25;34.89;42.75;;
76217;Laerm;65010;50.190;18.930;2024-02-26T10:32:09;40.22;34.86;42.44;;
76217;Laerm;65010;50.190;18.930;2024-02-26T10:35:18;40.26;34.57;42.53;;
76217;Laerm;65010;50.190;18.930;2024-02-26T10:38:25;40.21;34.78;42.48;;
76217;Laerm;65010;50.190;18.930;2024-02-26T10:41:34;40.30;34.80;42.46;;
76217;Laerm;65010;50.190;18.930;2024-02-26T10:44:40;40.23;34.82;42.34;;
76217;Laerm;65010;50.190;18.930;2024-02-26T10:47:48;40.11;34.70;42.30;;
76217;Laerm;65010;50.190;18.930;2024-02-26T10:50:54;40.16;34.42;42.45;;
76217;Laerm;65010;50.190;18.930;2024-02-26T10:54:06;40.04;34.89;42.27;;
76217;Laerm;65010;50.190;18.930;2024-02-26T10:57:18;40.05;34.76;42.27;;
76217;Laerm;65010;50.190;18.930;2024-02-26T11:00:27;40.16;34.86;42.34;;
76217;Laerm;65010;50.190;18.930;2024-02-26T11:03:37;39.81;34.90;42.46;;
76217;Laerm;65010;50.190;18.930;2024-02-26T11:06:45;40.08;34.81;42.41;;
76217;Laerm;65010;50.190;18.930;2024-02-26T11:09:54;40.12;34.79;42.56;;
76217;Laerm;65010;50.190;18.930;2024-02-26T11:13:06;40.06;34.58;42.47;;
76217;Laerm;65010;50.190;18.930;2024-02-26T11:16:18;39.74;34.76;42.34;;
76217;Laerm;65010;50.190;18.930;2024-02-26T11:19:25;39.79;34.56;42.30;;
76217;Laerm;65010;50.190;18.930;2024-02-26T11:22:32;40.23;34.97;42.48;;
76217;Laerm;65010;50.190;18.930;2024-02-26T11:25:39;39.87;34.62;42.56;;
76217;Laerm;65010;50.190;18.930;2024-02-26T11:28:49;39.93;34.55;42.49;;
76217;Laerm;65010;50.190;18.930;2024-02-26T11:32:00;40.06;34.75;42.49;;
76217;Laerm;65010;50.190;18.930;2024-02-26T11:35:07;40.13;34.70;42.31;;
76217;Laerm;65010;50.190;18.930;2024-02-26T11:38:21;40.23;34.72;42.88;;
76217;Laerm;65010;50.190;18.930;2024-02-26T11:41:28;39.95;34.85;42.29;;
76217;Laerm;65010;50.190;18.930;2024-02-26T11:44:37;39.69;34.64;42.50;;
76217;Laerm;65010;50.190;18.930;2024-02-26T11:47:56;40.10;34.64;42.49;;
76217;Laerm;65010;50.190;18.930;2024-02-26T11:51:05;40.01;34.52;42.60;;
76217;Laerm;65010;50.190;18.930;2024-02-26T11:54:53;40.10;34.68;42.48;;
76217;Laerm;65010;50.190;18.930;2024-02-26T11:58:02;39.95;34.82;42.29;;
76217;Laerm;65010;50.190;18.930;2024-02-26T12:01:39;39.97;34.48;42.44;;
76217;Laerm;65010;50.190;18.930;2024-02-26T12:04:45;39.88;34.81;42.79;;
76217;Laerm;65010;50.190;18.930;2024-02-26T12:07:55;39.91;34.75;42.38;;
76217;Laerm;65010;50.190;18.930;2024-02-26T12:11:03;39.95;34.54;42.22;;
76217;Laerm;65010;50.190;18.930;2024-02-26T12:14:09;39.80;34.77;42.18;;
76217;Laerm;65010;50.190;18.930;2024-02-26T12:17:23;39.55;34.51;42.48;;
76217;Laerm;65010;50.190;18.930;2024-02-26T12:20:32;39.65;34.37;42.26;;
76217;Laerm;65010;50.190;18.930;2024-02-26T12:23:38;39.86;34.62;42.16;;
76217;Laerm;65010;50.190;18.930;2024-02-26T12:26:44;39.86;34.74;42.21;;
76217;Laerm;65010;50.190;18.930;2024-02-26T12:29:50;39.73;34.88;42.20;;
76217;Laerm;65010;50.190;18.930;2024-02-26T12:32:59;39.57;34.60;42.07;;
76217;Laerm;65010;50.190;18.930;2024-02-26T12:36:07;39.74;34.76;42.12;;
76217;Laerm;65010;50.190;18.930;2024-02-26T12:39:13;39.87;34.71;42.21;;
76217;Laerm;65010;50.190;18.930;2024-02-26T12:42:20;39.86;34.78;42.30;;
76217;Laerm;65010;50.190;18.930;2024-02-26T12:45:25;39.90;34.86;42.73;;
76217;Laerm;65010;50.190;18.930;2024-02-26T12:48:35;39.80;34.56;42.54;;
76217;Laerm;65010;50.190;18.930;2024-02-26T12:51:42;39.79;34.82;42.42;;
76217;Laerm;65010;50.190;18.930;2024-02-26T12:54:49;39.88;34.87;42.79;;
76217;Laerm;65010;50.190;18.930;2024-02-26T12:57:56;39.87;34.82;42.05;;
76217;Laerm;65010;50.190;18.930;2024-02-26T13:01:03;40.47;34.72;42.47;;
76217;Laerm;65010;50.190;18.930;2024-02-26T13:04:12;40.80;37.79;42.76;;
76217;Laerm;65010;50.190;18.930;2024-02-26T13:07:20;40.74;36.85;42.37;;
76217;Laerm;65010;50.190;18.930;2024-02-26T13:10:26;40.80;38.83;42.60;;
76217;Laerm;65010;50.190;18.930;2024-02-26T13:13:32;40.78;39.13;42.59;;
76217;Laerm;65010;50.190;18.930;2024-02-26T13:16:38;40.92;39.13;42.78;;
76217;Laerm;65010;50.190;18.930;2024-02-26T13:19:54;40.82;38.90;42.77;;
76217;Laerm;65010;50.190;18.930;2024-02-26T13:23:01;40.86;38.88;42.99;;
76217;Laerm;65010;50.190;18.930;2024-02-26T13:26:11;40.81;39.05;42.61;;
76217;Laerm;65010;50.190;18.930;2024-02-26T13:29:18;40.82;35.91;42.83;;
76217;Laerm;65010;50.190;18.930;2024-02-26T13:32:25;40.82;39.12;42.53;;
76217;Laerm;65010;50.190;18.930;2024-02-26T13:35:36;40.84;39.16;43.01;;
76217;Laerm;65010;50.190;18.930;2024-02-26T13:38:52;40.94;36.15;42.96;;
76217;Laerm;65010;50.190;18.930;2024-02-26T13:41:58;40.88;39.06;42.93;;
76217;Laerm;65010;50.190;18.930;2024-02-26T13:45:07;40.76;38.72;42.55;;
76217;Laerm;65010;50.190;18.930;2024-02-26T13:48:14;40.83;38.75;42.66;;
76217;Laerm;65010;50.190;18.930;2024-02-26T13:51:23;40.92;35.66;42.86;;
76217;Laerm;65010;50.190;18.930;2024-02-26T13:54:29;40.92;35.01;42.96;;
76217;Laerm;65010;50.190;18.930;2024-02-26T13:57:36;40.91;35.57;42.65;;
76217;Laerm;65010;50.190;18.930;2024-02-26T14:00:42;40.93;35.53;42.52;;
76217;Laerm;65010;50.190;18.930;2024-02-26T14:03:48;40.93;37.74;42.61;;
76217;Laerm;65010;50.190;18.930;2024-02-26T14:06:56;40.92;35.46;42.67;;
76217;Laerm;65010;50.190;18.930;2024-02-26T14:10:04;40.76;39.08;42.62;;
76217;Laerm;65010;50.190;18.930;2024-02-26T14:13:10;40.90;35.63;42.80;;
76217;Laerm;65010;50.190;18.930;2024-02-26T14:16:16;40.77;35.02;42.71;;
76217;Laerm;65010;50.190;18.930;2024-02-26T14:19:23;40.77;35.13;43.07;;
76217;Laerm;65010;50.190;18.930;2024-02-26T14:22:32;40.71;34.84;42.56;;
76217;Laerm;65010;50.190;18.930;2024-02-26T14:25:37;40.89;39.10;42.54;;
76217;Laerm;65010;50.190;18.930;2024-02-26T14:28:43;40.79;39.04;42.54;;
76217;Laerm;65010;50.190;18.930;2024-02-26T14:31:49;40.75;39.10;42.52;;
76217;Laerm;65010;50.190;18.930;2024-02-26T14:34:56;40.80;36.38;42.79;;
76217;Laerm;65010;50.190;18.930;2024-02-26T14:38:05;40.82;39.13;42.36;;
76217;Laerm;65010;50.190;18.930;2024-02-26T14:41:11;40.84;38.98;42.62;;
76217;Laerm;65010;50.190;18.930;2024-02-26T14:44:16;40.90;35.96;42.79;;
76217;Laerm;65010;50.190;18.930;2024-02-26T14:47:23;41.02;39.17;42.87;;
76217;Laerm;65010;50.190;18.930;2024-02-26T14:50:29;41.01;38.86;42.99;;
76217;Laerm;65010;50.190;18.930;2024-02-26T14:53:37;41.00;38.65;42.68;;
76217;Laerm;65010;50.190;18.930;2024-02-26T14:56:43;40.99;38.85;42.66;;
76217;Laerm;65010;50.190;18.930;2024-02-26T14:59:49;40.97;38.83;42.77;;
76217;Laerm;65010;50.190;18.930;2024-02-26T15:02:55;41.06;39.01;42.95;;
76217;Laerm;65010;50.190;18.930;2024-02-26T15:06:02;41.09;39.29;42.87;;
76217;Laerm;65010;50.190;18.930;2024-02-26T15:09:10;41.04;39.23;43.12;;
76217;Laerm;65010;50.190;18.930;2024-02-26T15:12:17;41.09;39.21;42.84;;
76217;Laerm;65010;50.190;18.930;2024-02-26T15:15:34;41.03;35.21;42.84;;
76217;Laerm;65010;50.190;18.930;2024-02-26T15:18:42;41.11;35.69;42.81;;
76217;Laerm;65010;50.190;18.930;2024-02-26T15:21:48;41.01;38.89;43.01;;
76217;Laerm;65010;50.190;18.930;2024-02-26T15:24:58;41.01;39.13;42.94;;
76217;Laerm;65010;50.190;18.930;2024-02-26T15:28:04;41.01;39.40;42.74;;
76217;Laerm;65010;50.190;18.930;2024-02-26T15:31:13;40.98;39.07;42.62;;
76217;Laerm;65010;50.190;18.930;2024-02-26T15:34:20;40.86;39.17;42.47;;
76217;Laerm;65010;50.190;18.930;2024-02-26T15:37:27;40.89;36.95;42.60;;
76217;Laerm;65010;50.190;18.930;2024-02-26T15:40:35;40.96;37.60;42.94;;
76217;Laerm;65010;50.190;18.930;2024-02-26T15:43:41;40.88;38.92;42.54;;
76217;Laerm;65010;50.190;18.930;2024-02-26T15:46:47;40.96;37.27;42.50;;
76217;Laerm;65010;50.190;18.930;2024-02-26T15:49:53;40.95;36.24;42.89;;
76217;Laerm;65010;50.190;18.930;2024-02-26T15:53:00;41.02;38.86;43.10;;
76217;Laerm;65010;50.190;18.930;2024-02-26T15:56:09;41.09;39.32;43.68;;
76217;Laerm;65010;50.190;18.930;2024-02-26T15:59:15;41.24;39.40;43.22;;
76217;Laerm;65010;50.190;18.930;2024-02-26T16:02:21;41.02;39.02;42.75;;
76217;Laerm;65010;50.190;18.930;2024-02-26T16:05:27;41.17;35.24;43.42;;
76217;Laerm;65010;50.190;18.930;2024-02-26T16:08:33;40.97;38.89;43.27;;
76217;Laerm;65010;50.190;18.930;2024-02-26T16:11:41;41.13;38.75;43.06;;
76217;Laerm;65010;50.190;18.930;2024-02-26T16:14:50;41.26;39.01;43.41;;
76217;Laerm;65010;50.190;18.930;2024-02-26T16:17:56;41.13;39.06;42.96;;
76217;Laerm;65010;50.190;18.930;2024-02-26T16:21:04;40.97;36.22;43.31;;
76217;Laerm;65010;50.190;18.930;2024-02-26T16:24:09;41.29;36.20;43.22;;
76217;Laerm;65010;50.190;18.930;2024-02-26T16:27:18;40.87;37.00;43.08;;
76217;Laerm;65010;50.190;18.930;2024-02-26T16:30:24;41.02;39.19;42.80;;
76217;Laerm;65010;50.190;18.930;2024-02-26T16:33:31;41.00;37.35;42.75;;
76217;Laerm;65010;50.190;18.930;2024-02-26T16:36:36;41.03;38.99;42.84;;
76217;Laerm;65010;50.190;18.930;2024-02-26T16:39:43;40.98;39.21;42.84;;
76217;Laerm;65010;50.190;18.930;2024-02-26T16:42:53;41.03;39.20;42.90;;
76217;Laerm;65010;50.190;18.930;2024-02-26T16:46:00;41.14;39.27;43.07;;
76217;Laerm;65010;50.190;18.930;2024-02-26T16:49:05;41.02;39.01;42.96;;
76217;Laerm;65010;50.190;18.930;2024-02-26T16:52:12;41.06;36.42;42.95;;
76217;Laerm;65010;50.190;18.930;2024-02-26T16:55:17;41.05;39.07;42.90;;
76217;Laerm;65010;50.190;18.930;2024-02-26T16:58:26;41.08;39.40;43.14;;
76217;Laerm;65010;50.190;18.930;2024-02-26T17:01:32;41.01;39.21;42.85;;
76217;Laerm;65010;50.190;18.930;2024-02-26T17:04:38;41.04;39.40;42.95;;
76217;Laerm;65010;50.190;18.930;2024-02-26T17:07:44;41.08;39.37;43.09;;
76217;Laerm;65010;50.190;18.930;2024-02-26T17:10:51;41.15;39.31;42.89;;
76217;Laerm;65010;50.190;18.930;2024-02-26T17:13:59;41.17;39.20;42.88;;